Airfield :
LOGIN :

Register | Disclaimer

   EN    FR    IT 

 










Legend :    VFR   Marginal VFR   IFR   Intensive IFR   Very Intensive IFR
Visi :
Ceiling :
>= 8 km
>= 3000ft
5 to 8 km
1000 to 3000 ft
1500m to 5 km
500 to 1000 ft
800 to 1500m
200 to 500 ft
< 800m
< 200 ft
Symbols :   Thunderstorms  Fog  Heavy snow  Heavy precipitations  Wind > 20 kt
SIGMETs :     Misc.  Thunderstorms  Icing  Turbulence  Mountain Waves  Volcanic Ashes






- Airport Elevation : 1521 ft
- IATA code : NCY


LFLP - Annecy

CURRENT METAR :
  • 241230Z AUTO 18006KT 140V240 9999 FEW042 SCT056 BKN066 09/01 Q1005

EXPIRED METARs :
  • 241200Z AUTO VRB03KT 9999 SCT034 BKN040 BKN047 07/00 Q1005
  • 241130Z AUTO 24005KT 180V300 9999 FEW030 SCT038 07/02 Q1006
  • 241100Z AUTO 26009KT 220V280 9999 FEW034 BKN072 07/02 Q1006
  • 241030Z AUTO 25010KT 210V290 9999 FEW022 BKN040 BKN046 06/02 Q1006
  • 241000Z AUTO 26012KT 220V290 9999 SCT029 BKN039 OVC046 05/01 Q1006
  • 240930Z AUTO 22005KT 180V260 9999 FEW054 OVC068 06/01 Q1005
  • 240900Z AUTO VRB01KT CAVOK 06/01 Q1005
  • 240830Z AUTO VRB02KT CAVOK 06/02 Q1004
  • 240800Z AUTO VRB01KT 9999 FEW068 05/02 Q1004

Expired Forecast.



MET'MAP, your aeronautical weather chart ! - Copyright ORBIFLY December 2007 - Disclaimer

ORBIFLY MET'MAP TEAM :

Programming & Development : Alexandra Zaïnal
Original concept : Baudouin d'Aumeries
Technical & hardware support : Manuel Goepfert
Assistance : Marc-Olivier Méhu




SOURCES & CREDITS :

   NOAA